Time;durP1;ratioP1;P1;durP2;ratioP2;P2;SDS_P1;SDS_P2;PMS_P1;PMS_P2;Temp;Humidity;BMP_temperature;BMP_pressure;BME280_temperature;BME280_humidity;BME280_pressure;Samples;Min_cycle;Max_cycle;Signal;HPM_P1;HPM_P2
2022/01/07 00:01:24;;;;;;;21.50;7.27;;;;;;;2.60;76.50;101399.16;5053830;28;20115;-61
2022/01/07 00:03:51;;;;;;;18.03;7.30;;;;;;;2.58;77.59;101402.81;5044962;28;20065;-62
2022/01/07 00:06:16;;;;;;;20.20;6.90;;;;;;;2.58;77.58;101405.44;5039950;28;20032;-62
2022/01/07 00:08:42;;;;;;;18.90;6.67;;;;;;;2.60;77.42;101393.06;5044866;28;20408;-61
2022/01/07 00:11:07;;;;;;;16.17;7.07;;;;;;;2.63;77.35;101396.38;5042393;28;20493;-62
2022/01/07 00:13:32;;;;;;;17.87;7.07;;;;;;;2.55;78.16;101390.75;5051246;28;20021;-62
2022/01/07 00:15:58;;;;;;;19.47;7.20;;;;;;;2.60;77.40;101387.84;5057149;28;20035;-61
2022/01/07 00:18:23;;;;;;;18.23;6.70;;;;;;;2.55;78.55;101378.50;5049190;28;20416;-61
2022/01/07 00:20:50;;;;;;;20.17;6.63;;;;;;;2.56;77.19;101376.72;5051944;28;20029;-61
2022/01/07 00:23:15;;;;;;;16.67;6.63;;;;;;;2.52;77.88;101370.84;5051253;28;20700;-61
2022/01/07 00:25:40;;;;;;;20.30;6.73;;;;;;;2.51;78.16;101366.53;5051258;28;20040;-61
2022/01/07 00:28:06;;;;;;;16.20;6.90;;;;;;;2.48;78.72;101361.50;5048358;28;20025;-61
2022/01/07 00:30:33;;;;;;;13.23;6.40;;;;;;;2.51;78.52;101361.31;5052899;28;20135;-61
2022/01/07 00:32:58;;;;;;;21.17;6.53;;;;;;;2.50;78.80;101354.38;5050506;28;20032;-61
2022/01/07 00:35:24;;;;;;;17.60;6.93;;;;;;;2.48;79.17;101356.28;5049669;28;20112;-61
2022/01/07 00:37:49;;;;;;;13.83;6.30;;;;;;;2.48;78.85;101356.28;5046736;28;20426;-61
2022/01/07 00:40:21;;;;;;;16.93;6.57;;;;;;;2.44;80.44;101346.06;5046374;28;20425;-61
2022/01/07 00:42:49;;;;;;;15.10;6.57;;;;;;;2.41;80.13;101344.47;5048202;28;20128;-61
2022/01/07 00:45:14;;;;;;;16.93;6.40;;;;;;;2.39;80.55;101338.50;5048111;28;20309;-61
2022/01/07 00:47:40;;;;;;;14.50;6.57;;;;;;;2.36;80.96;101328.25;5060294;28;20113;-61
2022/01/07 00:50:07;;;;;;;15.90;6.57;;;;;;;2.32;81.35;101321.50;5043614;28;20060;-61
2022/01/07 00:52:33;;;;;;;16.40;6.67;;;;;;;2.31;81.17;101314.59;5048955;28;20099;-61
2022/01/07 00:54:59;;;;;;;18.97;6.97;;;;;;;2.29;81.05;101289.34;5044963;28;20036;-61
2022/01/07 00:57:24;;;;;;;18.20;6.90;;;;;;;2.36;80.34;101304.69;5049505;28;20044;-61
2022/01/07 00:59:50;;;;;;;19.53;6.80;;;;;;;2.31;81.31;101296.28;5051132;28;20033;-61
2022/01/07 01:02:16;;;;;;;17.80;6.40;;;;;;;2.31;81.71;101297.09;5048157;28;20091;-61
2022/01/07 01:04:43;;;;;;;18.50;6.70;;;;;;;2.34;81.31;101290.84;5045731;28;20340;-61
2022/01/07 01:07:09;;;;;;;15.97;6.70;;;;;;;2.33;80.99;101294.41;5045294;28;20067;-61
2022/01/07 01:09:34;;;;;;;18.17;6.33;;;;;;;2.32;81.33;101282.25;5054098;28;20049;-61
2022/01/07 01:12:00;;;;;;;13.57;5.97;;;;;;;2.39;80.56;101283.53;5054179;28;20529;-61
2022/01/07 01:14:25;;;;;;;14.70;5.77;;;;;;;2.33;80.56;101278.69;5053878;28;20029;-62
2022/01/07 01:16:51;;;;;;;15.80;6.30;;;;;;;2.35;80.64;101292.50;5049186;28;20392;-61
2022/01/07 01:19:17;;;;;;;17.83;5.93;;;;;;;2.37;79.93;101270.53;5043502;28;20381;-61
2022/01/07 01:21:42;;;;;;;13.30;5.50;;;;;;;2.39;80.19;101280.91;5049933;28;20033;-61
2022/01/07 01:24:08;;;;;;;18.27;6.27;;;;;;;2.36;79.39;101268.03;5048750;28;20468;-61
2022/01/07 01:26:33;;;;;;;15.07;5.93;;;;;;;2.35;80.34;101266.34;5046719;28;20413;-61
2022/01/07 01:28:58;;;;;;;15.53;5.70;;;;;;;2.36;80.29;101262.81;5062365;28;20115;-60
2022/01/07 01:31:24;;;;;;;15.30;5.53;;;;;;;2.37;80.60;101248.78;5042748;28;20033;-61
2022/01/07 01:33:49;;;;;;;15.87;5.63;;;;;;;2.37;80.29;101259.25;5053173;28;20036;-61
2022/01/07 01:36:14;;;;;;;16.13;5.57;;;;;;;2.40;79.24;101256.41;5058723;28;20037;-60
2022/01/07 01:38:40;;;;;;;12.87;4.90;;;;;;;2.40;79.42;101249.41;5042804;28;20033;-61
2022/01/07 01:41:07;;;;;;;16.23;5.70;;;;;;;2.42;79.54;101246.72;5042747;28;20033;-61
2022/01/07 01:43:33;;;;;;;15.00;5.33;;;;;;;2.41;79.95;101243.25;5048837;28;20056;-61
2022/01/07 01:45:58;;;;;;;13.70;5.30;;;;;;;2.41;79.12;101234.53;5058405;28;20392;-61
2022/01/07 01:48:23;;;;;;;12.70;5.33;;;;;;;2.47;78.63;101228.91;5045647;28;20080;-61
2022/01/07 01:50:50;;;;;;;15.23;5.40;;;;;;;2.48;78.91;101228.00;5049233;28;20037;-61
2022/01/07 01:53:16;;;;;;;15.10;5.00;;;;;;;2.46;79.01;101219.38;5049134;28;20107;-61
2022/01/07 01:55:41;;;;;;;13.43;5.10;;;;;;;2.47;78.52;101207.13;5053616;28;20108;-61
2022/01/07 01:58:07;;;;;;;17.03;5.10;;;;;;;2.46;79.33;101208.91;5052881;28;20037;-61
2022/01/07 02:00:33;;;;;;;15.57;5.40;;;;;;;2.49;79.10;101203.47;5058540;28;20037;-61
2022/01/07 02:02:58;;;;;;;12.77;4.70;;;;;;;2.53;78.11;101211.97;5049797;28;20051;-61
2022/01/07 02:05:26;;;;;;;13.33;4.73;;;;;;;2.49;78.70;101206.09;5045471;28;20029;-61
2022/01/07 02:07:52;;;;;;;13.90;4.50;;;;;;;2.57;77.68;101196.91;5044792;28;20026;-62
2022/01/07 02:10:17;;;;;;;12.43;4.30;;;;;;;2.53;78.63;101202.31;5052873;28;20094;-61
2022/01/07 02:12:43;;;;;;;11.70;4.47;;;;;;;2.55;78.48;101189.13;5048283;28;20018;-61
2022/01/07 02:15:10;;;;;;;12.90;4.60;;;;;;;2.61;78.31;101208.88;5053773;28;20025;-61
2022/01/07 02:17:40;;;;;;;12.60;4.50;;;;;;;2.55;78.50;101210.09;5048758;28;20087;-61
2022/01/07 02:20:07;;;;;;;10.83;4.10;;;;;;;2.54;78.99;101206.66;5052092;28;20032;-61
2022/01/07 02:22:32;;;;;;;16.07;4.70;;;;;;;2.53;79.65;101189.22;5043478;28;20025;-61
2022/01/07 02:24:57;;;;;;;9.73;4.00;;;;;;;2.54;79.77;101198.78;5041407;28;20043;-62
2022/01/07 02:27:23;;;;;;;11.63;3.90;;;;;;;2.57;80.27;101196.91;5048406;28;20025;-61
2022/01/07 02:29:50;;;;;;;12.90;3.90;;;;;;;2.54;80.27;101187.47;5052222;28;20481;-61
2022/01/07 02:32:16;;;;;;;12.47;4.03;;;;;;;2.49;81.76;101190.41;5046945;28;20041;-61
2022/01/07 02:34:41;;;;;;;10.20;4.00;;;;;;;2.46;82.26;101195.81;5045246;28;20345;-61
2022/01/07 02:37:07;;;;;;;9.67;4.13;;;;;;;2.46;82.68;101189.75;5048303;28;20044;-61
2022/01/07 02:39:32;;;;;;;15.10;4.90;;;;;;;2.36;83.66;101181.66;5044534;28;20099;-62
2022/01/07 02:41:57;;;;;;;13.77;4.40;;;;;;;2.31;84.18;101183.75;5048973;28;20044;-60
2022/01/07 02:44:22;;;;;;;14.97;4.50;;;;;;;2.31;84.75;101178.50;5045638;28;20029;-61
2022/01/07 02:46:48;;;;;;;11.97;4.37;;;;;;;2.25;85.21;101177.97;5054975;28;20078;-61
2022/01/07 02:49:16;;;;;;;12.07;4.60;;;;;;;2.23;85.27;101179.81;5041863;28;20366;-61
2022/01/07 02:51:43;;;;;;;13.03;4.70;;;;;;;2.20;85.83;101174.78;5049737;28;20021;-61
2022/01/07 02:54:09;;;;;;;11.43;4.77;;;;;;;2.13;86.43;101170.91;5043293;28;20082;-61
2022/01/07 02:56:35;;;;;;;14.23;4.83;;;;;;;2.10;87.15;101168.47;5056646;28;20109;-61
2022/01/07 02:59:03;;;;;;;13.47;4.70;;;;;;;2.11;86.92;101159.66;5051133;28;20554;-61
2022/01/07 03:01:28;;;;;;;18.20;4.93;;;;;;;2.07;87.06;101158.19;5049248;28;20048;-61
2022/01/07 03:03:53;;;;;;;11.97;4.90;;;;;;;2.06;87.63;101156.53;5045553;28;20195;-60
2022/01/07 03:06:21;;;;;;;9.57;4.40;;;;;;;2.13;86.94;101155.19;5057996;28;20044;-61
2022/01/07 03:08:47;;;;;;;12.27;4.63;;;;;;;2.04;88.11;101156.63;5046675;28;20033;-61
2022/01/07 03:11:13;;;;;;;12.77;4.90;;;;;;;2.03;88.13;101152.34;5052727;28;20075;-61
2022/01/07 03:13:38;;;;;;;13.57;4.40;;;;;;;1.98;88.36;101144.75;5051588;28;20076;-62
2022/01/07 03:16:04;;;;;;;12.80;4.90;;;;;;;1.95;88.77;101147.59;5050222;28;20599;-61
2022/01/07 03:18:29;;;;;;;12.00;4.77;;;;;;;1.92;89.09;101134.69;5053732;28;20032;-61
2022/01/07 03:20:54;;;;;;;12.87;5.00;;;;;;;1.89;88.47;101124.44;5047794;28;20026;-61
2022/01/07 03:23:19;;;;;;;14.83;5.10;;;;;;;1.83;89.76;101130.06;5054369;28;20043;-61
2022/01/07 03:25:45;;;;;;;13.57;4.97;;;;;;;1.82;89.85;101123.97;5055454;28;20063;-61
2022/01/07 03:28:10;;;;;;;13.40;4.80;;;;;;;1.82;89.70;101123.16;5045055;28;20033;-61
2022/01/07 03:30:36;;;;;;;14.07;5.40;;;;;;;1.79;90.15;101120.72;5045190;28;20025;-61
2022/01/07 03:33:03;;;;;;;12.97;5.30;;;;;;;1.81;89.51;101116.22;5054158;28;20029;-61
2022/01/07 03:35:28;;;;;;;16.63;5.17;;;;;;;1.76;90.34;101113.91;5056662;28;20032;-61
2022/01/07 03:37:53;;;;;;;12.57;5.00;;;;;;;1.77;90.98;101114.75;5049457;28;20032;-61
2022/01/07 03:40:20;;;;;;;16.50;5.33;;;;;;;1.77;90.73;101119.97;5039930;28;20048;-61
2022/01/07 03:42:46;;;;;;;13.33;5.23;;;;;;;1.77;91.03;101115.56;5049493;28;20047;-61
2022/01/07 03:45:13;;;;;;;14.80;5.50;;;;;;;1.73;91.47;101112.31;5059572;28;20056;-61
2022/01/07 03:47:39;;;;;;;13.47;5.60;;;;;;;1.76;91.80;101115.69;5050152;28;20539;-61
2022/01/07 03:50:07;;;;;;;12.07;5.20;;;;;;;1.74;91.91;101113.16;5052291;28;20024;-61
2022/01/07 03:52:32;;;;;;;15.20;5.43;;;;;;;1.77;91.73;101104.28;5048130;28;20083;-61
2022/01/07 03:54:58;;;;;;;11.30;5.17;;;;;;;1.74;92.59;101106.16;5051181;28;20028;-61
2022/01/07 03:57:23;;;;;;;11.93;5.27;;;;;;;1.73;92.70;101099.25;5047035;28;20024;-61
2022/01/07 03:59:50;;;;;;;13.67;5.77;;;;;;;1.78;92.09;101103.34;5044319;28;20036;-61
2022/01/07 04:02:16;;;;;;;10.37;5.33;;;;;;;1.76;92.74;101097.38;5050921;28;20063;-60
2022/01/07 04:04:41;;;;;;;13.67;5.50;;;;;;;1.74;92.99;101090.47;5048811;28;20056;-61
2022/01/07 04:07:06;;;;;;;15.20;5.80;;;;;;;1.75;93.32;101080.84;5055580;28;20063;-61
2022/01/07 04:09:32;;;;;;;10.97;5.70;;;;;;;1.71;93.33;101080.22;5049435;28;20488;-61
2022/01/07 04:11:59;;;;;;;13.07;5.47;;;;;;;1.77;93.19;101072.91;5050417;28;20108;-61
2022/01/07 04:14:25;;;;;;;11.07;5.53;;;;;;;1.76;93.05;101066.84;5050787;28;20055;-61
2022/01/07 04:16:51;;;;;;;12.23;5.63;;;;;;;1.76;93.53;101079.09;5049253;28;20044;-61
2022/01/07 04:19:16;;;;;;;11.77;5.53;;;;;;;1.77;93.30;101067.69;5038969;28;20029;-61
2022/01/07 04:21:42;;;;;;;12.40;5.70;;;;;;;1.78;93.73;101074.59;5047681;28;20083;-61
2022/01/07 04:24:07;;;;;;;10.33;5.30;;;;;;;1.79;93.57;101078.88;5050102;28;20033;-62
2022/01/07 04:26:32;;;;;;;12.00;5.60;;;;;;;1.84;93.48;101089.88;5046355;28;20033;-61
2022/01/07 04:28:57;;;;;;;13.03;5.63;;;;;;;1.82;93.87;101076.06;5050996;28;20032;-62
2022/01/07 04:31:23;;;;;;;12.77;5.70;;;;;;;1.92;93.89;101082.38;5048887;28;20060;-61
2022/01/07 04:33:48;;;;;;;13.00;5.53;;;;;;;1.90;93.55;101079.03;5052898;28;20491;-62
2022/01/07 04:36:13;;;;;;;12.80;5.73;;;;;;;1.88;94.21;101075.69;5042678;28;20087;-62
2022/01/07 04:38:38;;;;;;;12.93;6.07;;;;;;;1.92;93.48;101077.13;5059396;28;20128;-62
2022/01/07 04:41:04;;;;;;;11.97;5.77;;;;;;;1.93;94.42;101081.44;5061556;28;20079;-61
2022/01/07 04:43:29;;;;;;;13.40;5.70;;;;;;;1.96;94.59;101083.88;5053896;28;20028;-61
2022/01/07 04:45:55;;;;;;;14.00;6.27;;;;;;;2.04;94.21;101090.38;5054485;28;20037;-62
2022/01/07 04:48:20;;;;;;;11.77;5.97;;;;;;;2.01;94.77;101080.94;5045241;28;20033;-61
2022/01/07 04:50:45;;;;;;;9.57;6.17;;;;;;;2.05;94.51;101065.88;5048726;28;20043;-61
2022/01/07 04:53:11;;;;;;;13.60;6.67;;;;;;;2.01;95.02;101066.09;5054485;28;20454;-61
2022/01/07 04:55:38;;;;;;;16.13;6.50;;;;;;;2.04;94.98;101064.22;5052755;28;20028;-61
2022/01/07 04:58:09;;;;;;;11.80;6.90;;;;;;;2.05;95.31;101068.50;5058035;28;20379;-61
2022/01/07 05:00:35;;;;;;;10.37;6.20;;;;;;;2.08;94.98;101063.06;5045111;28;20033;-61
2022/01/07 05:03:00;;;;;;;12.63;6.43;;;;;;;2.07;95.00;101053.56;5052367;28;20049;-61
2022/01/07 05:05:26;;;;;;;12.43;6.67;;;;;;;2.14;94.50;101054.81;5046663;28;20522;-61
2022/01/07 05:07:51;;;;;;;14.03;6.77;;;;;;;2.12;95.33;101051.47;5051504;28;20108;-61
2022/01/07 05:10:17;;;;;;;14.83;7.57;;;;;;;2.08;95.46;101050.81;5054877;28;20568;-61
2022/01/07 05:12:42;;;;;;;12.50;7.50;;;;;;;2.08;95.52;101050.00;5050585;28;20037;-61
2022/01/07 05:15:09;;;;;;;12.07;7.10;;;;;;;2.11;95.77;101047.16;5053733;28;20111;-61
2022/01/07 05:17:35;;;;;;;11.67;7.23;;;;;;;2.15;95.35;101038.19;5049581;28;20036;-62
2022/01/07 05:20:00;;;;;;;13.17;7.53;;;;;;;2.18;95.52;101029.28;5054313;28;20033;-61
2022/01/07 05:22:26;;;;;;;16.13;8.17;;;;;;;2.17;95.65;101041.53;5055297;28;20024;-61
2022/01/07 05:24:51;;;;;;;12.17;7.47;;;;;;;2.18;95.71;101045.00;5042805;28;20083;-61
2022/01/07 05:27:16;;;;;;;16.40;7.93;;;;;;;2.21;96.04;101040.41;5049341;28;20071;-61
2022/01/07 05:29:42;;;;;;;13.97;8.17;;;;;;;2.23;95.74;101037.69;5054008;28;20040;-61
2022/01/07 05:32:08;;;;;;;17.07;8.60;;;;;;;2.24;95.85;101045.44;5053789;28;20473;-62
2022/01/07 05:34:34;;;;;;;13.63;8.23;;;;;;;2.25;95.97;101041.03;5051937;28;20029;-62
2022/01/07 05:36:59;;;;;;;12.97;8.23;;;;;;;2.29;95.85;101038.09;5053944;28;20033;-62
2022/01/07 05:39:24;;;;;;;15.20;8.37;;;;;;;2.28;96.05;101035.59;5049430;28;20040;-61
2022/01/07 05:41:50;;;;;;;14.00;8.50;;;;;;;2.26;96.49;101027.84;5050504;28;21507;-61
2022/01/07 05:44:16;;;;;;;16.17;8.40;;;;;;;2.28;96.21;101035.59;5048146;28;20041;-62
2022/01/07 05:46:42;;;;;;;14.97;8.37;;;;;;;2.33;96.26;101037.91;5051469;28;20115;-62
2022/01/07 05:49:07;;;;;;;15.03;8.97;;;;;;;2.33;95.97;101040.53;5054306;28;20032;-61
2022/01/07 05:51:32;;;;;;;15.80;8.93;;;;;;;2.34;96.35;101029.97;5042359;28;20488;-61
2022/01/07 05:53:58;;;;;;;13.97;8.93;;;;;;;2.36;95.85;101027.25;5053055;28;20044;-62
2022/01/07 05:56:23;;;;;;;16.13;9.70;;;;;;;2.39;95.98;101029.63;5053341;28;20025;-62
2022/01/07 05:58:48;;;;;;;15.00;7.50;;;;;;;2.47;95.82;101024.72;5046256;28;20476;-62
2022/01/07 06:01:14;;;;;;;17.87;9.53;;;;;;;2.43;95.78;101023.25;5051198;28;20476;-61
2022/01/07 06:03:40;;;;;;;16.97;9.27;;;;;;;2.47;95.43;101023.91;5052883;28;20124;-62
2022/01/07 06:06:05;;;;;;;14.33;8.40;;;;;;;2.51;95.43;101020.94;5050156;28;20079;-62
2022/01/07 06:08:31;;;;;;;17.87;9.50;;;;;;;2.51;95.51;101026.19;5046688;28;20115;-62
2022/01/07 06:10:56;;;;;;;15.37;8.60;;;;;;;2.53;95.31;101034.75;5043487;28;20102;-61
2022/01/07 06:13:21;;;;;;;17.17;8.60;;;;;;;2.51;95.79;101028.00;5039267;28;20072;-61
2022/01/07 06:15:46;;;;;;;16.47;9.37;;;;;;;2.50;95.87;101035.00;5056960;28;20471;-62
2022/01/07 06:18:12;;;;;;;17.03;9.00;;;;;;;2.51;95.80;101035.84;5050333;28;20033;-62
2022/01/07 06:20:37;;;;;;;16.47;9.07;;;;;;;2.52;95.95;101035.72;5051872;28;20025;-62
2022/01/07 06:23:03;;;;;;;16.47;9.33;;;;;;;2.54;96.21;101044.31;5051678;28;20060;-61
2022/01/07 06:25:28;;;;;;;19.30;9.37;;;;;;;2.54;95.96;101036.47;5050532;28;20960;-61
2022/01/07 06:27:53;;;;;;;16.43;8.73;;;;;;;2.61;96.10;101042.09;5049613;28;20029;-61
2022/01/07 06:30:19;;;;;;;16.43;9.23;;;;;;;2.59;96.00;101037.91;5047620;28;20036;-62
2022/01/07 06:32:44;;;;;;;16.63;9.27;;;;;;;2.60;96.10;101039.59;5047971;28;20071;-61
2022/01/07 06:35:10;;;;;;;16.63;9.40;;;;;;;2.62;95.65;101029.88;5052055;28;20068;-61
2022/01/07 06:37:36;;;;;;;16.43;9.30;;;;;;;2.66;95.57;101031.34;5050788;28;20365;-61
2022/01/07 06:40:02;;;;;;;17.80;9.40;;;;;;;2.65;96.08;101037.50;5049486;28;20108;-62
2022/01/07 06:42:27;;;;;;;16.23;8.93;;;;;;;2.74;95.28;101047.34;5046148;28;20085;-62
2022/01/07 06:44:53;;;;;;;19.23;10.00;;;;;;;2.69;95.87;101038.97;5047083;28;20037;-62
2022/01/07 06:47:18;;;;;;;18.10;10.30;;;;;;;2.69;96.08;101028.50;5049218;28;20028;-62
2022/01/07 06:49:43;;;;;;;14.27;9.30;;;;;;;2.72;95.75;101037.94;5044715;28;20044;-61
2022/01/07 06:52:09;;;;;;;15.70;9.53;;;;;;;2.75;95.24;101038.56;5038255;28;20355;-62
2022/01/07 06:54:34;;;;;;;17.27;9.23;;;;;;;2.77;95.62;101031.41;5041558;28;20405;-62
2022/01/07 06:56:59;;;;;;;19.47;9.93;;;;;;;2.76;95.73;101028.94;5051197;28;20484;-62
2022/01/07 06:59:24;;;;;;;20.17;10.30;;;;;;;2.76;96.02;101029.75;5038584;28;20026;-62
2022/01/07 07:01:50;;;;;;;20.75;10.13;;;;;;;2.79;95.63;101023.47;5045759;28;20090;-62
2022/01/07 07:04:16;;;;;;;18.85;9.88;;;;;;;2.87;95.31;101031.66;5033234;28;20454;-62
2022/01/07 07:06:42;;;;;;;21.90;10.40;;;;;;;2.85;95.13;101032.69;5037488;28;20029;-62
2022/01/07 07:09:08;;;;;;;18.45;10.80;;;;;;;2.82;95.41;101031.13;5035766;28;20026;-62
2022/01/07 07:11:33;;;;;;;21.13;10.57;;;;;;;2.80;95.95;101036.47;5036359;28;20044;-62
2022/01/07 07:13:59;;;;;;;18.47;10.33;;;;;;;2.81;95.65;101048.59;5033449;28;20029;-62
2022/01/07 07:16:24;;;;;;;20.88;10.82;;;;;;;2.83;95.69;101041.47;5036020;28;20044;-62
2022/01/07 07:18:49;;;;;;;18.98;10.50;;;;;;;2.89;95.42;101042.00;5042223;28;20377;-62
2022/01/07 07:21:15;;;;;;;18.80;10.27;;;;;;;2.88;95.67;101043.78;5032402;28;20070;-62
2022/01/07 07:23:40;;;;;;;19.73;10.55;;;;;;;2.91;95.61;101042.75;5029377;28;20041;-61
2022/01/07 07:26:06;;;;;;;18.73;10.30;;;;;;;3.00;94.78;101036.84;5033933;28;20042;-62
2022/01/07 07:28:35;;;;;;;21.97;10.70;;;;;;;2.93;95.79;101040.84;5036267;28;20110;-62
2022/01/07 07:31:01;;;;;;;18.67;10.70;;;;;;;2.95;95.90;101033.72;5037980;28;20688;-55
2022/01/07 07:38:40;;;;;;;21.33;11.07;;;;;;;3.02;94.90;101045.47;5039387;28;20036;-58
2022/01/07 07:41:06;;;;;;;19.38;10.35;;;;;;;3.02;95.16;101050.69;5040884;28;20059;-57
2022/01/07 07:43:32;;;;;;;21.02;10.90;;;;;;;3.00;95.33;101046.50;5034110;28;20032;-59
2022/01/07 07:45:58;;;;;;;20.25;10.90;;;;;;;3.01;95.37;101033.28;5033266;28;20082;-59
2022/01/07 07:48:23;;;;;;;22.07;11.10;;;;;;;3.01;95.44;101022.81;5030031;28;20041;-59
2022/01/07 07:50:48;;;;;;;20.65;10.85;;;;;;;3.03;95.46;101020.94;5038883;28;20041;-57
2022/01/07 07:53:13;;;;;;;18.45;10.82;;;;;;;3.04;95.46;101016.50;5035323;28;20029;-60
2022/01/07 07:55:39;;;;;;;19.63;10.98;;;;;;;3.04;95.70;101033.09;5033677;28;20465;-59
2022/01/07 07:58:04;;;;;;;19.52;10.85;;;;;;;3.05;96.06;101034.75;5036651;28;20034;-59
2022/01/07 08:00:31;;;;;;;17.93;10.87;;;;;;;3.04;95.99;101043.56;5037724;28;20080;-60
2022/01/07 08:02:57;;;;;;;22.65;11.52;;;;;;;3.06;95.95;101048.69;5040701;28;20048;-59
2022/01/07 08:05:23;;;;;;;20.30;11.52;;;;;;;3.11;95.29;101037.88;5038794;28;20043;-60
2022/01/07 08:07:48;;;;;;;21.13;10.95;;;;;;;3.13;95.87;101043.84;5038366;28;20029;-59
2022/01/07 08:10:13;;;;;;;19.83;10.95;;;;;;;3.13;95.39;101038.59;5041070;28;20032;-59
2022/01/07 08:18:20;;;;;;;24.77;11.18;;;;;;;3.15;95.46;101028.88;5052388;28;20036;-60
2022/01/07 08:20:46;;;;;;;22.50;11.43;;;;;;;3.16;95.58;101014.81;5045013;28;20083;-59
2022/01/07 08:23:12;;;;;;;21.45;10.85;;;;;;;3.17;95.45;101019.13;5046351;28;20120;-60
2022/01/07 08:25:38;;;;;;;19.65;10.48;;;;;;;3.18;95.41;101016.38;5041858;28;20032;-59
2022/01/07 08:28:04;;;;;;;19.20;10.82;;;;;;;3.20;95.50;101006.63;5044869;28;20033;-62
2022/01/07 08:30:36;;;;;;;19.58;10.93;;;;;;;3.22;95.05;101009.16;5036361;28;20033;-59
2022/01/07 08:35:49;;;;;;;19.33;10.43;;;;;;;3.32;94.29;101015.41;5040843;28;20067;-58
2022/01/07 08:38:15;;;;;;;19.92;10.77;;;;;;;3.27;94.52;101012.28;5040798;28;20337;-59
2022/01/07 08:40:40;;;;;;;20.05;10.80;;;;;;;3.29;94.90;101020.84;5050500;28;20029;-57
2022/01/07 08:43:06;;;;;;;22.17;11.30;;;;;;;3.33;94.67;101011.00;5052537;28;20071;-59
2022/01/07 08:45:31;;;;;;;20.07;10.50;;;;;;;3.42;93.48;101019.97;5037688;28;20034;-59
2022/01/07 08:47:57;;;;;;;23.00;10.52;;;;;;;3.34;94.61;101020.53;5053002;28;20040;-58
2022/01/07 08:50:22;;;;;;;19.83;10.27;;;;;;;3.33;94.70;101016.22;5044432;28;20025;-59
2022/01/07 08:52:50;;;;;;;21.33;11.00;;;;;;;3.36;94.41;101032.56;5043241;28;20033;-60
2022/01/07 08:55:15;;;;;;;21.83;11.07;;;;;;;3.39;94.71;101030.72;5042046;28;20443;-59
2022/01/07 08:57:40;;;;;;;17.75;10.77;;;;;;;3.46;94.54;101031.94;5049713;28;20036;-58
2022/01/07 09:00:06;;;;;;;17.60;10.38;;;;;;;3.46;94.45;101026.69;5034650;28;20508;-61
2022/01/07 09:02:31;;;;;;;20.40;10.13;;;;;;;3.46;94.04;101038.00;5045870;28;20053;-59
2022/01/07 09:04:57;;;;;;;20.48;9.93;;;;;;;3.57;92.69;101034.63;5039808;28;20033;-59
2022/01/07 09:07:22;;;;;;;19.17;10.45;;;;;;;3.46;94.20;101031.94;5051723;28;20033;-60
2022/01/07 09:09:47;;;;;;;20.52;9.75;;;;;;;3.52;93.70;101021.00;5048997;28;20034;-58
2022/01/07 09:12:13;;;;;;;18.73;10.45;;;;;;;3.46;94.07;101026.69;5052913;28;20071;-59
2022/01/07 09:14:38;;;;;;;22.05;9.90;;;;;;;3.52;93.17;101026.25;5050869;28;20029;-59
2022/01/07 09:17:03;;;;;;;21.45;10.55;;;;;;;3.43;94.03;101024.28;5062976;28;20484;-59
2022/01/07 09:19:29;;;;;;;20.30;10.35;;;;;;;3.43;94.43;101024.28;5047625;28;20040;-60
2022/01/07 09:21:56;;;;;;;19.65;10.00;;;;;;;3.53;93.67;101027.06;5049130;28;20028;-60
2022/01/07 09:24:22;;;;;;;22.08;10.52;;;;;;;3.50;93.59;101022.88;5048184;28;20057;-59
2022/01/07 09:26:48;;;;;;;20.02;10.38;;;;;;;3.44;94.13;101023.31;5051190;28;20025;-58
2022/01/07 09:29:13;;;;;;;19.80;10.18;;;;;;;3.45;94.63;101017.16;5047537;28;20037;-60
2022/01/07 09:31:38;;;;;;;17.92;10.00;;;;;;;3.48;94.05;101023.00;5047618;28;20036;-60
2022/01/07 09:34:04;;;;;;;21.80;10.40;;;;;;;3.48;94.61;101024.78;5047757;28;20079;-59
2022/01/07 09:36:29;;;;;;;17.77;9.48;;;;;;;3.56;93.39;101011.94;5052122;28;20029;-59
2022/01/07 09:38:54;;;;;;;20.67;9.82;;;;;;;3.58;94.68;101015.31;5049442;28;20111;-59
2022/01/07 09:41:20;;;;;;;18.65;9.52;;;;;;;3.63;94.16;101014.97;5040777;28;20040;-59
2022/01/07 09:43:45;;;;;;;18.90;9.63;;;;;;;3.66;93.89;101016.53;5048737;28;20036;-59
2022/01/07 09:46:15;;;;;;;16.35;9.18;;;;;;;3.71;93.36;101024.91;5050954;28;20553;-59
2022/01/07 09:48:41;;;;;;;18.58;9.00;;;;;;;3.74;93.17;101025.53;5053589;28;20040;-62
2022/01/07 09:51:07;;;;;;;15.35;8.90;;;;;;;3.74;93.50;101014.19;5065296;28;20029;-61
2022/01/07 09:53:32;;;;;;;16.98;8.82;;;;;;;3.79;93.32;101016.50;5043554;28;20116;-61
2022/01/07 09:55:57;;;;;;;19.17;8.77;;;;;;;3.86;92.15;101013.28;5052017;28;20129;-61
2022/01/07 09:58:23;;;;;;;16.65;8.52;;;;;;;3.88;92.40;101019.28;5050794;28;20098;-61
2022/01/07 10:00:48;;;;;;;15.70;8.95;;;;;;;3.84;92.86;101007.31;5054164;28;20053;-61
2022/01/07 10:03:16;;;;;;;13.82;7.93;;;;;;;3.88;91.93;101007.94;5048034;28;20484;-60
2022/01/07 10:05:46;;;;;;;16.25;8.35;;;;;;;3.87;92.13;101006.25;5047828;28;20059;-60
2022/01/07 10:08:20;;;;;;;14.15;8.00;;;;;;;3.88;91.80;101011.41;5051789;28;20029;-60
2022/01/07 10:10:46;;;;;;;17.00;8.70;;;;;;;3.97;91.90;101003.78;5043034;28;20332;-61
2022/01/07 10:13:11;;;;;;;16.10;8.02;;;;;;;3.94;92.29;101009.28;5052446;28;20033;-65
2022/01/07 10:15:40;;;;;;;19.65;8.18;;;;;;;3.95;92.22;101017.00;5051037;28;20029;-66
2022/01/07 10:18:08;;;;;;;14.73;7.22;;;;;;;4.00;90.25;101001.75;5037320;28;20033;-66
2022/01/07 10:20:40;;;;;;;14.23;7.53;;;;;;;3.99;91.13;101002.72;5042353;28;20147;-66
2022/01/07 10:23:08;;;;;;;14.40;7.95;;;;;;;4.02;91.15;101001.66;5045838;28;20035;-66
2022/01/07 10:25:38;;;;;;;14.45;7.32;;;;;;;4.10;90.46;101003.72;5051575;28;20560;-66
2022/01/07 10:28:09;;;;;;;15.15;7.63;;;;;;;4.07;91.13;100994.28;5043204;28;20029;-66
2022/01/07 10:30:41;;;;;;;15.18;7.07;;;;;;;4.11;90.54;100985.22;5032544;28;20729;-65
2022/01/07 10:33:27;;;;;;;13.05;7.00;;;;;;;4.21;89.89;100976.66;5032648;28;20024;-65
2022/01/07 10:36:15;;;;;;;17.17;7.20;;;;;;;4.22;91.21;100980.94;5034855;28;20028;-64
2022/01/07 10:38:49;;;;;;;11.68;6.28;;;;;;;4.36;88.85;100993.88;5032802;28;20090;-65
2022/01/07 10:41:15;;;;;;;17.08;6.85;;;;;;;4.34;90.51;100985.25;5035341;28;20033;-66
2022/01/07 10:43:40;;;;;;;13.05;5.55;;;;;;;4.46;89.09;100988.75;5039165;28;20040;-65
2022/01/07 10:46:08;;;;;;;13.85;6.85;;;;;;;4.46;89.43;100977.41;5035998;28;20045;-66
2022/01/07 10:48:47;;;;;;;14.43;6.95;;;;;;;4.49;90.43;100978.00;5036047;28;20029;-66
2022/01/07 10:51:14;;;;;;;16.45;6.70;;;;;;;4.61;88.56;100985.88;5043173;28;20632;-66
2022/01/07 10:53:46;;;;;;;13.88;6.30;;;;;;;4.58;88.45;100972.03;5042742;28;20052;-64
2022/01/07 10:56:16;;;;;;;14.55;6.57;;;;;;;4.56;87.85;100967.88;5036467;28;20048;-64
2022/01/07 10:58:57;;;;;;;16.73;6.20;;;;;;;4.63;88.87;100969.06;5042008;28;20017;-66
2022/01/07 11:01:33;;;;;;;16.05;5.88;;;;;;;4.55;87.97;100966.19;5038122;28;20056;-65
2022/01/07 11:04:00;;;;;;;16.13;6.22;;;;;;;4.68;86.53;100972.16;5037527;28;20405;-65
2022/01/07 11:06:27;;;;;;;15.43;6.05;;;;;;;4.59;87.55;100975.50;5035498;28;20037;-66
2022/01/07 11:08:55;;;;;;;15.10;6.80;;;;;;;4.73;86.49;100968.34;5038708;28;20039;-66
2022/01/07 11:11:22;;;;;;;15.98;6.45;;;;;;;4.65;89.23;100972.41;5041047;28;20037;-66
2022/01/07 11:13:47;;;;;;;20.50;6.45;;;;;;;4.75;87.83;100967.28;5036427;28;20776;-66
2022/01/07 11:16:13;;;;;;;14.48;6.15;;;;;;;4.80;87.20;100972.16;5044756;28;20029;-66
2022/01/07 11:18:41;;;;;;;14.32;6.28;;;;;;;4.74;87.80;100970.84;5034884;28;20029;-65
2022/01/07 11:21:08;;;;;;;18.50;7.53;;;;;;;4.71;88.12;100976.34;5037499;28;20021;-64
2022/01/07 11:23:37;;;;;;;13.73;6.18;;;;;;;4.77;87.68;100969.75;5040258;28;20033;-65
2022/01/07 11:26:08;;;;;;;16.33;5.75;;;;;;;4.75;88.88;100966.44;5035693;28;20064;-65
2022/01/07 11:28:35;;;;;;;19.20;5.63;;;;;;;4.75;87.18;100976.94;5039777;28;20024;-64
2022/01/07 11:31:12;;;;;;;13.50;6.18;;;;;;;4.64;88.99;100975.97;5040267;28;20041;-60
2022/01/07 11:33:38;;;;;;;16.30;6.15;;;;;;;4.65;88.05;100977.66;5037903;28;20021;-59